Aviation Digital Data Service (ADDS)

Output produced by METARs form (1537 UTC 28 November 2014)
found at http://aviationweather.gov/adds/metars/
 
KBHB 281120Z 2812/2912 34006KT P6SM SCT100 BKN200 
     FM281500 35006KT P6SM BKN070 
     FM290100 VRB03KT 5SM -SHSN BKN020 
     FM290300 VRB03KT P6SM SKC AMD LTD TO CLD VIS AND WIND